sensor_id;sensor_type;location;lat;lon;timestamp;P1;durP1;ratioP1;P2;durP2;ratioP2
5878;SDS011;2965;42.640;23.370;2022-09-01T00:01:33;21.40;;;15.43;;
5878;SDS011;2965;42.640;23.370;2022-09-01T00:04:01;16.77;;;14.43;;
5878;SDS011;2965;42.640;23.370;2022-09-01T00:06:28;22.67;;;14.87;;
5878;SDS011;2965;42.640;23.370;2022-09-01T00:08:57;19.00;;;14.37;;
5878;SDS011;2965;42.640;23.370;2022-09-01T00:11:24;19.27;;;14.50;;
5878;SDS011;2965;42.640;23.370;2022-09-01T00:13:51;19.40;;;15.97;;
5878;SDS011;2965;42.640;23.370;2022-09-01T00:16:17;18.70;;;15.77;;
5878;SDS011;2965;42.640;23.370;2022-09-01T00:18:44;25.80;;;15.50;;
5878;SDS011;2965;42.640;23.370;2022-09-01T00:21:13;19.90;;;15.60;;
5878;SDS011;2965;42.640;23.370;2022-09-01T00:23:39;18.57;;;15.63;;
5878;SDS011;2965;42.640;23.370;2022-09-01T00:26:05;19.90;;;14.97;;
5878;SDS011;2965;42.640;23.370;2022-09-01T00:28:37;28.10;;;14.60;;
5878;SDS011;2965;42.640;23.370;2022-09-01T00:31:03;23.03;;;14.70;;
5878;SDS011;2965;42.640;23.370;2022-09-01T00:33:30;17.20;;;14.23;;
5878;SDS011;2965;42.640;23.370;2022-09-01T00:35:56;22.83;;;14.93;;
5878;SDS011;2965;42.640;23.370;2022-09-01T00:38:22;18.67;;;14.60;;
5878;SDS011;2965;42.640;23.370;2022-09-01T00:40:47;20.97;;;15.00;;
5878;SDS011;2965;42.640;23.370;2022-09-01T00:43:20;27.23;;;14.50;;
5878;SDS011;2965;42.640;23.370;2022-09-01T00:45:59;21.60;;;14.40;;
5878;SDS011;2965;42.640;23.370;2022-09-01T00:48:24;27.03;;;15.87;;
5878;SDS011;2965;42.640;23.370;2022-09-01T00:50:50;27.60;;;17.00;;
5878;SDS011;2965;42.640;23.370;2022-09-01T00:53:16;21.17;;;16.80;;
5878;SDS011;2965;42.640;23.370;2022-09-01T00:55:42;24.73;;;16.20;;
5878;SDS011;2965;42.640;23.370;2022-09-01T00:58:07;20.60;;;14.50;;
5878;SDS011;2965;42.640;23.370;2022-09-01T01:00:34;15.23;;;13.60;;
5878;SDS011;2965;42.640;23.370;2022-09-01T01:03:05;18.60;;;14.40;;
5878;SDS011;2965;42.640;23.370;2022-09-01T01:05:37;23.33;;;13.83;;
5878;SDS011;2965;42.640;23.370;2022-09-01T01:08:07;21.67;;;15.33;;
5878;SDS011;2965;42.640;23.370;2022-09-01T01:10:37;25.87;;;16.07;;
5878;SDS011;2965;42.640;23.370;2022-09-01T01:13:08;22.03;;;16.73;;
5878;SDS011;2965;42.640;23.370;2022-09-01T01:15:38;21.73;;;14.80;;
5878;SDS011;2965;42.640;23.370;2022-09-01T01:18:07;20.53;;;14.40;;
5878;SDS011;2965;42.640;23.370;2022-09-01T01:20:35;19.03;;;14.70;;
5878;SDS011;2965;42.640;23.370;2022-09-01T01:23:36;20.67;;;14.10;;
5878;SDS011;2965;42.640;23.370;2022-09-01T01:26:09;32.00;;;16.30;;
5878;SDS011;2965;42.640;23.370;2022-09-01T01:28:36;22.40;;;15.53;;
5878;SDS011;2965;42.640;23.370;2022-09-01T01:33:40;25.63;;;14.47;;
5878;SDS011;2965;42.640;23.370;2022-09-01T01:36:12;20.17;;;14.80;;
5878;SDS011;2965;42.640;23.370;2022-09-01T01:38:43;29.57;;;17.00;;
5878;SDS011;2965;42.640;23.370;2022-09-01T01:41:11;25.33;;;16.60;;
5878;SDS011;2965;42.640;23.370;2022-09-01T01:43:37;24.03;;;17.30;;
5878;SDS011;2965;42.640;23.370;2022-09-01T01:46:04;22.10;;;17.00;;
5878;SDS011;2965;42.640;23.370;2022-09-01T01:48:32;27.37;;;16.80;;
5878;SDS011;2965;42.640;23.370;2022-09-01T01:51:00;24.63;;;16.17;;
5878;SDS011;2965;42.640;23.370;2022-09-01T01:53:27;30.07;;;17.60;;
5878;SDS011;2965;42.640;23.370;2022-09-01T01:55:53;22.37;;;16.97;;
5878;SDS011;2965;42.640;23.370;2022-09-01T01:58:20;30.30;;;19.33;;
5878;SDS011;2965;42.640;23.370;2022-09-01T02:00:49;34.10;;;17.70;;
5878;SDS011;2965;42.640;23.370;2022-09-01T02:03:16;26.80;;;18.20;;
5878;SDS011;2965;42.640;23.370;2022-09-01T02:05:47;26.00;;;17.83;;
5878;SDS011;2965;42.640;23.370;2022-09-01T02:08:15;29.30;;;17.67;;
5878;SDS011;2965;42.640;23.370;2022-09-01T02:10:45;23.03;;;17.43;;
5878;SDS011;2965;42.640;23.370;2022-09-01T02:13:13;32.73;;;16.87;;
5878;SDS011;2965;42.640;23.370;2022-09-01T02:15:44;28.13;;;16.27;;
5878;SDS011;2965;42.640;23.370;2022-09-01T02:18:17;33.30;;;17.67;;
5878;SDS011;2965;42.640;23.370;2022-09-01T02:20:49;22.17;;;16.57;;
5878;SDS011;2965;42.640;23.370;2022-09-01T02:23:16;21.97;;;16.40;;
5878;SDS011;2965;42.640;23.370;2022-09-01T02:25:47;25.47;;;16.03;;
5878;SDS011;2965;42.640;23.370;2022-09-01T02:28:15;24.17;;;17.10;;
5878;SDS011;2965;42.640;23.370;2022-09-01T02:30:46;19.40;;;15.37;;
5878;SDS011;2965;42.640;23.370;2022-09-01T02:33:18;24.97;;;16.60;;
5878;SDS011;2965;42.640;23.370;2022-09-01T02:35:45;20.60;;;15.90;;
5878;SDS011;2965;42.640;23.370;2022-09-01T02:38:11;25.50;;;16.87;;
5878;SDS011;2965;42.640;23.370;2022-09-01T02:40:38;22.93;;;15.37;;
5878;SDS011;2965;42.640;23.370;2022-09-01T02:43:07;21.20;;;15.83;;
5878;SDS011;2965;42.640;23.370;2022-09-01T02:45:35;23.60;;;16.87;;
5878;SDS011;2965;42.640;23.370;2022-09-01T02:48:02;21.07;;;14.50;;
5878;SDS011;2965;42.640;23.370;2022-09-01T02:50:32;23.33;;;15.03;;
5878;SDS011;2965;42.640;23.370;2022-09-01T02:52:57;24.83;;;15.30;;
5878;SDS011;2965;42.640;23.370;2022-09-01T02:55:24;20.70;;;14.47;;
5878;SDS011;2965;42.640;23.370;2022-09-01T02:57:50;19.93;;;14.70;;
5878;SDS011;2965;42.640;23.370;2022-09-01T03:00:21;27.53;;;16.17;;
5878;SDS011;2965;42.640;23.370;2022-09-01T03:02:56;24.97;;;16.10;;
5878;SDS011;2965;42.640;23.370;2022-09-01T03:05:25;25.90;;;15.93;;
5878;SDS011;2965;42.640;23.370;2022-09-01T03:07:57;21.50;;;15.57;;
5878;SDS011;2965;42.640;23.370;2022-09-01T03:10:27;20.20;;;14.80;;
5878;SDS011;2965;42.640;23.370;2022-09-01T03:13:00;21.30;;;15.30;;
5878;SDS011;2965;42.640;23.370;2022-09-01T03:15:32;25.57;;;15.53;;
5878;SDS011;2965;42.640;23.370;2022-09-01T03:17:59;19.30;;;13.70;;
5878;SDS011;2965;42.640;23.370;2022-09-01T03:20:27;22.70;;;15.57;;
5878;SDS011;2965;42.640;23.370;2022-09-01T03:22:54;26.10;;;16.50;;
5878;SDS011;2965;42.640;23.370;2022-09-01T03:25:22;24.77;;;17.43;;
5878;SDS011;2965;42.640;23.370;2022-09-01T03:27:49;21.10;;;15.80;;
5878;SDS011;2965;42.640;23.370;2022-09-01T03:30:16;22.33;;;16.83;;
5878;SDS011;2965;42.640;23.370;2022-09-01T03:32:42;21.20;;;16.00;;
5878;SDS011;2965;42.640;23.370;2022-09-01T03:35:09;29.70;;;15.67;;
5878;SDS011;2965;42.640;23.370;2022-09-01T03:37:36;21.80;;;14.43;;
5878;SDS011;2965;42.640;23.370;2022-09-01T03:40:03;26.53;;;15.53;;
5878;SDS011;2965;42.640;23.370;2022-09-01T03:42:30;23.40;;;13.67;;
5878;SDS011;2965;42.640;23.370;2022-09-01T03:44:56;28.50;;;16.63;;
5878;SDS011;2965;42.640;23.370;2022-09-01T03:47:22;29.07;;;14.40;;
5878;SDS011;2965;42.640;23.370;2022-09-01T03:49:48;21.50;;;14.30;;
5878;SDS011;2965;42.640;23.370;2022-09-01T03:52:15;19.13;;;14.60;;
5878;SDS011;2965;42.640;23.370;2022-09-01T03:54:41;21.57;;;14.63;;
5878;SDS011;2965;42.640;23.370;2022-09-01T03:57:09;23.90;;;15.43;;
5878;SDS011;2965;42.640;23.370;2022-09-01T03:59:35;20.50;;;15.50;;
5878;SDS011;2965;42.640;23.370;2022-09-01T04:02:07;17.67;;;14.27;;
5878;SDS011;2965;42.640;23.370;2022-09-01T04:04:33;21.87;;;16.13;;
5878;SDS011;2965;42.640;23.370;2022-09-01T04:06:59;18.37;;;15.33;;
5878;SDS011;2965;42.640;23.370;2022-09-01T04:09:25;28.20;;;15.47;;
5878;SDS011;2965;42.640;23.370;2022-09-01T04:11:51;20.97;;;15.10;;
5878;SDS011;2965;42.640;23.370;2022-09-01T04:14:18;23.63;;;15.30;;
5878;SDS011;2965;42.640;23.370;2022-09-01T04:16:44;21.50;;;15.33;;
5878;SDS011;2965;42.640;23.370;2022-09-01T04:19:31;30.70;;;15.47;;
5878;SDS011;2965;42.640;23.370;2022-09-01T04:22:00;25.67;;;14.27;;
5878;SDS011;2965;42.640;23.370;2022-09-01T04:24:28;24.00;;;14.80;;
5878;SDS011;2965;42.640;23.370;2022-09-01T04:26:55;19.80;;;15.60;;
5878;SDS011;2965;42.640;23.370;2022-09-01T04:29:23;25.53;;;15.53;;
5878;SDS011;2965;42.640;23.370;2022-09-01T04:31:56;18.50;;;14.87;;
5878;SDS011;2965;42.640;23.370;2022-09-01T04:34:28;24.60;;;15.53;;
5878;SDS011;2965;42.640;23.370;2022-09-01T04:37:02;23.93;;;15.63;;
5878;SDS011;2965;42.640;23.370;2022-09-01T04:39:47;19.63;;;15.60;;
5878;SDS011;2965;42.640;23.370;2022-09-01T04:42:16;23.30;;;14.87;;
5878;SDS011;2965;42.640;23.370;2022-09-01T04:44:43;19.53;;;14.67;;
5878;SDS011;2965;42.640;23.370;2022-09-01T04:47:10;24.10;;;16.77;;
5878;SDS011;2965;42.640;23.370;2022-09-01T04:49:41;24.10;;;15.80;;
5878;SDS011;2965;42.640;23.370;2022-09-01T04:52:09;23.53;;;16.27;;
5878;SDS011;2965;42.640;23.370;2022-09-01T04:54:37;19.63;;;15.63;;
5878;SDS011;2965;42.640;23.370;2022-09-01T04:57:03;27.20;;;15.27;;
5878;SDS011;2965;42.640;23.370;2022-09-01T04:59:32;31.90;;;15.80;;
5878;SDS011;2965;42.640;23.370;2022-09-01T05:01:58;23.13;;;15.70;;
5878;SDS011;2965;42.640;23.370;2022-09-01T05:04:26;22.70;;;15.07;;
5878;SDS011;2965;42.640;23.370;2022-09-01T05:06:58;26.40;;;16.30;;
5878;SDS011;2965;42.640;23.370;2022-09-01T05:09:29;23.30;;;16.40;;
5878;SDS011;2965;42.640;23.370;2022-09-01T05:12:02;29.43;;;17.20;;
5878;SDS011;2965;42.640;23.370;2022-09-01T05:14:38;19.30;;;15.07;;
5878;SDS011;2965;42.640;23.370;2022-09-01T05:17:08;27.07;;;17.07;;
5878;SDS011;2965;42.640;23.370;2022-09-01T05:19:39;28.67;;;17.50;;
5878;SDS011;2965;42.640;23.370;2022-09-01T05:22:07;27.20;;;17.80;;
5878;SDS011;2965;42.640;23.370;2022-09-01T05:24:33;30.40;;;17.40;;
5878;SDS011;2965;42.640;23.370;2022-09-01T05:26:59;30.40;;;17.43;;
5878;SDS011;2965;42.640;23.370;2022-09-01T05:29:25;24.60;;;17.50;;
5878;SDS011;2965;42.640;23.370;2022-09-01T05:31:52;34.10;;;19.53;;
5878;SDS011;2965;42.640;23.370;2022-09-01T05:34:19;26.57;;;17.67;;
5878;SDS011;2965;42.640;23.370;2022-09-01T05:36:51;30.57;;;18.70;;
5878;SDS011;2965;42.640;23.370;2022-09-01T05:39:18;27.37;;;18.03;;
5878;SDS011;2965;42.640;23.370;2022-09-01T05:41:44;29.73;;;17.97;;
5878;SDS011;2965;42.640;23.370;2022-09-01T05:44:12;31.53;;;18.10;;
5878;SDS011;2965;42.640;23.370;2022-09-01T05:46:38;32.00;;;19.13;;
5878;SDS011;2965;42.640;23.370;2022-09-01T05:49:04;35.90;;;18.07;;
5878;SDS011;2965;42.640;23.370;2022-09-01T05:51:44;40.93;;;19.60;;
5878;SDS011;2965;42.640;23.370;2022-09-01T05:54:13;30.30;;;20.47;;
5878;SDS011;2965;42.640;23.370;2022-09-01T05:56:40;35.63;;;24.40;;
5878;SDS011;2965;42.640;23.370;2022-09-01T05:59:06;36.03;;;22.53;;
5878;SDS011;2965;42.640;23.370;2022-09-01T06:01:33;34.10;;;19.70;;
5878;SDS011;2965;42.640;23.370;2022-09-01T06:03:59;42.03;;;22.87;;
5878;SDS011;2965;42.640;23.370;2022-09-01T06:06:28;44.03;;;22.47;;
5878;SDS011;2965;42.640;23.370;2022-09-01T06:09:02;34.60;;;21.20;;
5878;SDS011;2965;42.640;23.370;2022-09-01T06:11:29;39.03;;;21.93;;
5878;SDS011;2965;42.640;23.370;2022-09-01T06:13:57;37.73;;;23.70;;
5878;SDS011;2965;42.640;23.370;2022-09-01T06:16:24;54.73;;;24.33;;
5878;SDS011;2965;42.640;23.370;2022-09-01T06:18:50;48.00;;;25.30;;
5878;SDS011;2965;42.640;23.370;2022-09-01T06:21:17;38.33;;;24.80;;
5878;SDS011;2965;42.640;23.370;2022-09-01T06:23:44;36.90;;;24.70;;
5878;SDS011;2965;42.640;23.370;2022-09-01T06:26:43;38.23;;;23.23;;
5878;SDS011;2965;42.640;23.370;2022-09-01T06:29:04;35.80;;;22.37;;
5878;SDS011;2965;42.640;23.370;2022-09-01T06:31:34;34.83;;;23.33;;
5878;SDS011;2965;42.640;23.370;2022-09-01T06:34:04;41.10;;;25.17;;
5878;SDS011;2965;42.640;23.370;2022-09-01T06:36:34;38.30;;;24.13;;
5878;SDS011;2965;42.640;23.370;2022-09-01T06:39:01;39.60;;;24.63;;
5878;SDS011;2965;42.640;23.370;2022-09-01T06:41:29;37.13;;;21.87;;
5878;SDS011;2965;42.640;23.370;2022-09-01T06:43:55;41.80;;;23.90;;
5878;SDS011;2965;42.640;23.370;2022-09-01T06:46:21;50.67;;;24.40;;
5878;SDS011;2965;42.640;23.370;2022-09-01T06:48:51;42.27;;;25.63;;
5878;SDS011;2965;42.640;23.370;2022-09-01T06:51:18;39.97;;;26.17;;
5878;SDS011;2965;42.640;23.370;2022-09-01T06:53:48;52.40;;;26.00;;
5878;SDS011;2965;42.640;23.370;2022-09-01T06:56:17;43.63;;;24.23;;
5878;SDS011;2965;42.640;23.370;2022-09-01T06:58:43;50.47;;;27.20;;
5878;SDS011;2965;42.640;23.370;2022-09-01T07:01:16;52.43;;;25.97;;
5878;SDS011;2965;42.640;23.370;2022-09-01T07:03:45;58.70;;;27.90;;
5878;SDS011;2965;42.640;23.370;2022-09-01T07:06:13;66.30;;;29.60;;
5878;SDS011;2965;42.640;23.370;2022-09-01T07:08:39;51.90;;;28.83;;
5878;SDS011;2965;42.640;23.370;2022-09-01T07:11:13;57.33;;;27.37;;
5878;SDS011;2965;42.640;23.370;2022-09-01T07:13:49;47.40;;;27.20;;
5878;SDS011;2965;42.640;23.370;2022-09-01T07:16:18;49.27;;;27.80;;
5878;SDS011;2965;42.640;23.370;2022-09-01T07:18:46;43.07;;;25.43;;
5878;SDS011;2965;42.640;23.370;2022-09-01T07:21:12;48.47;;;27.53;;
5878;SDS011;2965;42.640;23.370;2022-09-01T07:23:38;48.10;;;27.70;;
5878;SDS011;2965;42.640;23.370;2022-09-01T07:26:04;39.73;;;25.50;;
5878;SDS011;2965;42.640;23.370;2022-09-01T07:28:31;45.70;;;26.60;;
5878;SDS011;2965;42.640;23.370;2022-09-01T07:30:57;44.00;;;27.70;;
5878;SDS011;2965;42.640;23.370;2022-09-01T07:33:23;53.47;;;28.20;;
5878;SDS011;2965;42.640;23.370;2022-09-01T07:35:50;48.10;;;29.37;;
5878;SDS011;2965;42.640;23.370;2022-09-01T07:38:19;49.30;;;29.13;;
5878;SDS011;2965;42.640;23.370;2022-09-01T07:40:46;37.10;;;24.13;;
5878;SDS011;2965;42.640;23.370;2022-09-01T07:43:20;53.80;;;27.90;;
5878;SDS011;2965;42.640;23.370;2022-09-01T07:45:49;47.23;;;26.13;;
5878;SDS011;2965;42.640;23.370;2022-09-01T07:48:20;45.73;;;27.90;;
5878;SDS011;2965;42.640;23.370;2022-09-01T07:50:48;44.60;;;28.00;;
5878;SDS011;2965;42.640;23.370;2022-09-01T07:53:16;53.13;;;27.40;;
5878;SDS011;2965;42.640;23.370;2022-09-01T07:55:50;42.50;;;25.70;;
5878;SDS011;2965;42.640;23.370;2022-09-01T07:58:19;46.33;;;25.27;;
5878;SDS011;2965;42.640;23.370;2022-09-01T08:00:47;39.70;;;25.20;;
5878;SDS011;2965;42.640;23.370;2022-09-01T08:03:13;44.07;;;25.63;;
5878;SDS011;2965;42.640;23.370;2022-09-01T08:05:43;39.43;;;24.67;;
5878;SDS011;2965;42.640;23.370;2022-09-01T08:08:10;41.37;;;25.70;;
5878;SDS011;2965;42.640;23.370;2022-09-01T08:10:38;43.50;;;28.10;;
5878;SDS011;2965;42.640;23.370;2022-09-01T08:13:06;47.10;;;28.00;;
5878;SDS011;2965;42.640;23.370;2022-09-01T08:15:32;49.40;;;28.00;;
5878;SDS011;2965;42.640;23.370;2022-09-01T08:17:57;39.37;;;24.60;;
5878;SDS011;2965;42.640;23.370;2022-09-01T08:20:23;31.17;;;23.20;;
5878;SDS011;2965;42.640;23.370;2022-09-01T08:22:48;38.00;;;25.00;;
5878;SDS011;2965;42.640;23.370;2022-09-01T08:25:14;36.60;;;25.77;;
5878;SDS011;2965;42.640;23.370;2022-09-01T08:27:40;36.00;;;23.67;;
5878;SDS011;2965;42.640;23.370;2022-09-01T08:30:06;33.43;;;22.43;;
5878;SDS011;2965;42.640;23.370;2022-09-01T08:32:35;39.77;;;23.23;;
5878;SDS011;2965;42.640;23.370;2022-09-01T08:35:01;28.17;;;21.63;;
5878;SDS011;2965;42.640;23.370;2022-09-01T08:37:28;33.50;;;21.17;;
5878;SDS011;2965;42.640;23.370;2022-09-01T08:39:54;31.47;;;20.87;;
5878;SDS011;2965;42.640;23.370;2022-09-01T08:45:22;31.30;;;21.20;;
5878;SDS011;2965;42.640;23.370;2022-09-01T08:47:54;26.63;;;20.07;;
5878;SDS011;2965;42.640;23.370;2022-09-01T08:50:24;33.97;;;21.20;;
5878;SDS011;2965;42.640;23.370;2022-09-01T08:52:57;38.53;;;22.47;;
5878;SDS011;2965;42.640;23.370;2022-09-01T08:55:34;39.70;;;21.10;;
5878;SDS011;2965;42.640;23.370;2022-09-01T08:58:04;39.03;;;22.80;;
5878;SDS011;2965;42.640;23.370;2022-09-01T09:00:38;28.90;;;21.10;;
5878;SDS011;2965;42.640;23.370;2022-09-01T09:11:42;32.53;;;19.87;;
5878;SDS011;2965;42.640;23.370;2022-09-01T09:17:17;23.37;;;19.10;;
5878;SDS011;2965;42.640;23.370;2022-09-01T09:19:47;32.27;;;20.03;;
5878;SDS011;2965;42.640;23.370;2022-09-01T09:22:13;23.83;;;17.80;;
5878;SDS011;2965;42.640;23.370;2022-09-01T09:27:26;22.00;;;18.20;;
5878;SDS011;2965;42.640;23.370;2022-09-01T09:29:54;32.17;;;19.13;;
5878;SDS011;2965;42.640;23.370;2022-09-01T09:35:37;28.43;;;18.60;;
5878;SDS011;2965;42.640;23.370;2022-09-01T09:41:05;36.40;;;18.00;;
5878;SDS011;2965;42.640;23.370;2022-09-01T09:43:40;20.17;;;16.60;;
5878;SDS011;2965;42.640;23.370;2022-09-01T09:46:19;17.07;;;15.27;;
5878;SDS011;2965;42.640;23.370;2022-09-01T09:51:55;31.83;;;14.73;;
5878;SDS011;2965;42.640;23.370;2022-09-01T09:54:57;32.60;;;15.60;;
5878;SDS011;2965;42.640;23.370;2022-09-01T09:57:23;18.67;;;14.80;;
5878;SDS011;2965;42.640;23.370;2022-09-01T09:59:53;17.40;;;14.37;;
5878;SDS011;2965;42.640;23.370;2022-09-01T10:02:38;20.10;;;12.93;;
5878;SDS011;2965;42.640;23.370;2022-09-01T10:07:52;15.80;;;13.03;;
5878;SDS011;2965;42.640;23.370;2022-09-01T10:12:54;16.70;;;13.40;;
5878;SDS011;2965;42.640;23.370;2022-09-01T10:15:25;17.50;;;14.10;;
5878;SDS011;2965;42.640;23.370;2022-09-01T10:17:54;15.70;;;13.20;;
5878;SDS011;2965;42.640;23.370;2022-09-01T10:20:25;26.10;;;15.03;;
5878;SDS011;2965;42.640;23.370;2022-09-01T10:22:52;22.83;;;16.60;;
5878;SDS011;2965;42.640;23.370;2022-09-01T10:25:23;16.43;;;14.13;;
5878;SDS011;2965;42.640;23.370;2022-09-01T10:27:55;21.33;;;14.10;;
5878;SDS011;2965;42.640;23.370;2022-09-01T10:30:26;21.07;;;13.80;;
5878;SDS011;2965;42.640;23.370;2022-09-01T10:32:55;17.53;;;13.93;;
5878;SDS011;2965;42.640;23.370;2022-09-01T10:37:52;16.17;;;14.50;;
5878;SDS011;2965;42.640;23.370;2022-09-01T10:42:52;21.30;;;15.17;;
5878;SDS011;2965;42.640;23.370;2022-09-01T10:45:33;19.17;;;14.27;;
5878;SDS011;2965;42.640;23.370;2022-09-01T10:48:44;15.23;;;13.60;;
5878;SDS011;2965;42.640;23.370;2022-09-01T10:53:51;17.70;;;13.70;;
5878;SDS011;2965;42.640;23.370;2022-09-01T11:04:14;16.93;;;13.60;;
5878;SDS011;2965;42.640;23.370;2022-09-01T11:09:22;20.03;;;14.47;;
5878;SDS011;2965;42.640;23.370;2022-09-01T11:14:27;15.17;;;13.77;;
5878;SDS011;2965;42.640;23.370;2022-09-01T11:20:02;15.03;;;13.40;;
5878;SDS011;2965;42.640;23.370;2022-09-01T11:22:41;20.23;;;14.00;;
5878;SDS011;2965;42.640;23.370;2022-09-01T11:35:39;20.13;;;13.50;;
5878;SDS011;2965;42.640;23.370;2022-09-01T11:38:07;21.03;;;13.83;;
5878;SDS011;2965;42.640;23.370;2022-09-01T11:40:36;21.37;;;13.70;;
5878;SDS011;2965;42.640;23.370;2022-09-01T11:43:09;15.70;;;12.37;;
5878;SDS011;2965;42.640;23.370;2022-09-01T11:45:51;16.50;;;14.57;;
5878;SDS011;2965;42.640;23.370;2022-09-01T11:48:26;15.83;;;13.30;;
5878;SDS011;2965;42.640;23.370;2022-09-01T11:50:59;16.70;;;14.67;;
5878;SDS011;2965;42.640;23.370;2022-09-01T11:53:27;16.00;;;12.73;;
5878;SDS011;2965;42.640;23.370;2022-09-01T11:55:54;16.47;;;13.10;;
5878;SDS011;2965;42.640;23.370;2022-09-01T11:58:35;13.63;;;12.30;;
5878;SDS011;2965;42.640;23.370;2022-09-01T12:03:40;13.30;;;12.20;;
5878;SDS011;2965;42.640;23.370;2022-09-01T12:06:07;16.13;;;13.30;;
5878;SDS011;2965;42.640;23.370;2022-09-01T12:08:39;14.20;;;12.20;;
5878;SDS011;2965;42.640;23.370;2022-09-01T12:11:17;13.37;;;11.97;;
5878;SDS011;2965;42.640;23.370;2022-09-01T12:13:56;16.60;;;12.00;;
5878;SDS011;2965;42.640;23.370;2022-09-01T12:16:27;15.10;;;13.73;;
5878;SDS011;2965;42.640;23.370;2022-09-01T12:18:55;14.90;;;13.47;;
5878;SDS011;2965;42.640;23.370;2022-09-01T12:23:48;15.67;;;14.00;;
5878;SDS011;2965;42.640;23.370;2022-09-01T12:26:14;16.53;;;14.90;;
5878;SDS011;2965;42.640;23.370;2022-09-01T12:28:43;15.83;;;14.33;;
5878;SDS011;2965;42.640;23.370;2022-09-01T12:31:14;15.97;;;14.37;;
5878;SDS011;2965;42.640;23.370;2022-09-01T12:33:41;18.23;;;16.20;;
5878;SDS011;2965;42.640;23.370;2022-09-01T12:38:54;27.90;;;23.60;;
5878;SDS011;2965;42.640;23.370;2022-09-01T12:41:31;21.77;;;15.57;;
5878;SDS011;2965;42.640;23.370;2022-09-01T12:46:50;17.50;;;15.70;;
5878;SDS011;2965;42.640;23.370;2022-09-01T12:49:33;19.03;;;16.67;;
5878;SDS011;2965;42.640;23.370;2022-09-01T12:52:43;26.23;;;15.50;;
5878;SDS011;2965;42.640;23.370;2022-09-01T12:54:52;18.77;;;16.77;;
5878;SDS011;2965;42.640;23.370;2022-09-01T12:57:33;21.70;;;16.53;;
5878;SDS011;2965;42.640;23.370;2022-09-01T13:07:43;18.70;;;16.17;;
5878;SDS011;2965;42.640;23.370;2022-09-01T13:10:08;19.60;;;17.10;;
5878;SDS011;2965;42.640;23.370;2022-09-01T13:12:37;27.30;;;16.37;;
5878;SDS011;2965;42.640;23.370;2022-09-01T13:15:06;18.67;;;16.87;;
5878;SDS011;2965;42.640;23.370;2022-09-01T13:17:32;17.90;;;14.97;;
5878;SDS011;2965;42.640;23.370;2022-09-01T13:19:57;21.63;;;16.33;;
5878;SDS011;2965;42.640;23.370;2022-09-01T13:22:23;26.67;;;16.63;;
5878;SDS011;2965;42.640;23.370;2022-09-01T13:24:48;16.60;;;14.90;;
5878;SDS011;2965;42.640;23.370;2022-09-01T13:27:14;29.47;;;16.20;;
5878;SDS011;2965;42.640;23.370;2022-09-01T13:29:39;19.10;;;15.83;;
5878;SDS011;2965;42.640;23.370;2022-09-01T13:32:05;20.00;;;15.00;;
5878;SDS011;2965;42.640;23.370;2022-09-01T13:34:31;26.87;;;17.17;;
5878;SDS011;2965;42.640;23.370;2022-09-01T13:36:57;22.63;;;15.30;;
5878;SDS011;2965;42.640;23.370;2022-09-01T13:39:22;20.83;;;15.77;;
5878;SDS011;2965;42.640;23.370;2022-09-01T13:41:48;18.60;;;16.23;;
5878;SDS011;2965;42.640;23.370;2022-09-01T13:44:14;20.13;;;16.27;;
5878;SDS011;2965;42.640;23.370;2022-09-01T13:46:39;20.43;;;16.33;;
5878;SDS011;2965;42.640;23.370;2022-09-01T13:49:05;20.47;;;17.37;;
5878;SDS011;2965;42.640;23.370;2022-09-01T13:51:31;21.47;;;17.50;;
5878;SDS011;2965;42.640;23.370;2022-09-01T13:53:56;25.10;;;17.83;;
5878;SDS011;2965;42.640;23.370;2022-09-01T13:56:22;18.80;;;16.30;;
5878;SDS011;2965;42.640;23.370;2022-09-01T13:58:47;23.80;;;15.00;;
5878;SDS011;2965;42.640;23.370;2022-09-01T14:01:13;25.63;;;17.03;;
5878;SDS011;2965;42.640;23.370;2022-09-01T14:03:39;19.40;;;15.97;;
5878;SDS011;2965;42.640;23.370;2022-09-01T14:06:05;20.67;;;15.40;;
5878;SDS011;2965;42.640;23.370;2022-09-01T14:08:31;29.67;;;15.77;;
5878;SDS011;2965;42.640;23.370;2022-09-01T14:10:58;19.77;;;15.40;;
5878;SDS011;2965;42.640;23.370;2022-09-01T14:13:24;23.53;;;16.40;;
5878;SDS011;2965;42.640;23.370;2022-09-01T14:15:50;17.33;;;15.53;;
5878;SDS011;2965;42.640;23.370;2022-09-01T14:18:17;18.17;;;16.30;;
5878;SDS011;2965;42.640;23.370;2022-09-01T14:20:44;24.47;;;16.10;;
5878;SDS011;2965;42.640;23.370;2022-09-01T14:23:12;23.97;;;16.80;;
5878;SDS011;2965;42.640;23.370;2022-09-01T14:25:43;20.20;;;15.93;;
5878;SDS011;2965;42.640;23.370;2022-09-01T14:28:09;24.43;;;16.40;;
5878;SDS011;2965;42.640;23.370;2022-09-01T14:30:35;18.13;;;16.13;;
5878;SDS011;2965;42.640;23.370;2022-09-01T14:33:01;21.30;;;18.60;;
5878;SDS011;2965;42.640;23.370;2022-09-01T14:35:28;20.33;;;17.03;;
5878;SDS011;2965;42.640;23.370;2022-09-01T14:37:57;22.87;;;16.07;;
5878;SDS011;2965;42.640;23.370;2022-09-01T14:40:23;18.47;;;16.53;;
5878;SDS011;2965;42.640;23.370;2022-09-01T14:42:49;19.87;;;15.90;;
5878;SDS011;2965;42.640;23.370;2022-09-01T14:45:21;22.10;;;17.33;;
5878;SDS011;2965;42.640;23.370;2022-09-01T14:47:50;17.87;;;15.80;;
5878;SDS011;2965;42.640;23.370;2022-09-01T14:50:18;18.67;;;16.30;;
5878;SDS011;2965;42.640;23.370;2022-09-01T14:52:44;18.33;;;15.83;;
5878;SDS011;2965;42.640;23.370;2022-09-01T14:55:11;22.67;;;15.27;;
5878;SDS011;2965;42.640;23.370;2022-09-01T14:57:36;19.23;;;16.33;;
5878;SDS011;2965;42.640;23.370;2022-09-01T15:00:03;17.97;;;16.07;;
5878;SDS011;2965;42.640;23.370;2022-09-01T15:02:34;19.67;;;16.07;;
5878;SDS011;2965;42.640;23.370;2022-09-01T15:05:00;18.27;;;15.73;;
5878;SDS011;2965;42.640;23.370;2022-09-01T15:07:25;16.33;;;14.70;;
5878;SDS011;2965;42.640;23.370;2022-09-01T15:09:51;19.87;;;14.87;;
5878;SDS011;2965;42.640;23.370;2022-09-01T15:12:16;17.93;;;15.13;;
5878;SDS011;2965;42.640;23.370;2022-09-01T15:14:43;20.90;;;15.43;;
5878;SDS011;2965;42.640;23.370;2022-09-01T15:17:08;16.90;;;15.20;;
5878;SDS011;2965;42.640;23.370;2022-09-01T15:19:34;17.37;;;15.03;;
5878;SDS011;2965;42.640;23.370;2022-09-01T15:22:00;17.73;;;15.70;;
5878;SDS011;2965;42.640;23.370;2022-09-01T15:24:25;18.27;;;15.60;;
5878;SDS011;2965;42.640;23.370;2022-09-01T15:26:51;17.53;;;15.83;;
5878;SDS011;2965;42.640;23.370;2022-09-01T15:29:16;21.40;;;16.10;;
5878;SDS011;2965;42.640;23.370;2022-09-01T15:31:42;24.83;;;16.40;;
5878;SDS011;2965;42.640;23.370;2022-09-01T15:34:08;21.33;;;18.40;;
5878;SDS011;2965;42.640;23.370;2022-09-01T15:36:37;20.00;;;17.10;;
5878;SDS011;2965;42.640;23.370;2022-09-01T15:39:04;30.47;;;18.13;;
5878;SDS011;2965;42.640;23.370;2022-09-01T15:41:32;21.10;;;18.10;;
5878;SDS011;2965;42.640;23.370;2022-09-01T15:43:58;25.10;;;17.80;;
5878;SDS011;2965;42.640;23.370;2022-09-01T15:46:26;25.00;;;17.50;;
5878;SDS011;2965;42.640;23.370;2022-09-01T15:48:57;31.83;;;18.93;;
5878;SDS011;2965;42.640;23.370;2022-09-01T15:51:28;24.10;;;17.80;;
5878;SDS011;2965;42.640;23.370;2022-09-01T15:53:57;32.47;;;18.57;;
5878;SDS011;2965;42.640;23.370;2022-09-01T15:56:27;26.13;;;18.27;;
5878;SDS011;2965;42.640;23.370;2022-09-01T15:58:55;26.47;;;19.47;;
5878;SDS011;2965;42.640;23.370;2022-09-01T16:01:23;21.50;;;17.37;;
5878;SDS011;2965;42.640;23.370;2022-09-01T16:03:49;21.93;;;18.00;;
5878;SDS011;2965;42.640;23.370;2022-09-01T16:06:15;25.57;;;16.90;;
5878;SDS011;2965;42.640;23.370;2022-09-01T16:08:40;22.73;;;17.93;;
5878;SDS011;2965;42.640;23.370;2022-09-01T16:11:07;28.53;;;18.23;;